createdAt,value
2022-08-21T00:00:54.740Z,0.00
2022-08-21T00:01:54.782Z,0.00
2022-08-21T00:02:54.769Z,0.00
2022-08-21T00:03:54.719Z,0.00
2022-08-21T00:04:57.708Z,0.00
2022-08-21T00:05:54.737Z,0.00
2022-08-21T00:06:54.681Z,0.00
2022-08-21T00:07:54.690Z,0.00
2022-08-21T00:08:54.669Z,0.00
2022-08-21T00:09:54.652Z,0.00
2022-08-21T00:10:54.660Z,0.00
2022-08-21T00:11:54.629Z,0.00
2022-08-21T00:12:54.644Z,0.00
2022-08-21T00:13:54.636Z,0.00
2022-08-21T00:14:56.973Z,0.00
2022-08-21T00:15:54.602Z,0.00
2022-08-21T00:16:57.276Z,0.00
2022-08-21T00:17:55.586Z,0.00
2022-08-21T00:18:54.579Z,0.00
2022-08-21T00:19:54.576Z,0.00
2022-08-21T00:20:54.544Z,0.00
2022-08-21T00:21:54.537Z,0.00
2022-08-21T00:22:54.597Z,0.00
2022-08-21T00:23:54.508Z,0.00
2022-08-21T00:24:54.518Z,0.00
2022-08-21T00:25:54.498Z,0.00
2022-08-21T00:26:54.494Z,0.00
2022-08-21T00:27:54.477Z,0.00
2022-08-21T00:28:54.484Z,0.00
2022-08-21T00:29:54.454Z,0.00
2022-08-21T00:30:54.446Z,0.00
2022-08-21T00:31:54.460Z,0.00
2022-08-21T00:32:54.475Z,0.00
2022-08-21T00:33:59.351Z,0.00
2022-08-21T00:34:55.398Z,0.00
2022-08-21T00:35:54.384Z,0.00
2022-08-21T00:36:54.403Z,0.00
2022-08-21T00:37:54.373Z,0.00
2022-08-21T00:38:54.365Z,0.00
2022-08-21T00:39:54.511Z,0.00
2022-08-21T00:40:54.336Z,0.00
2022-08-21T00:41:54.341Z,0.00
2022-08-21T00:42:54.347Z,0.00
2022-08-21T00:43:54.318Z,0.00
2022-08-21T00:44:54.306Z,0.00
2022-08-21T00:45:54.301Z,0.00
2022-08-21T00:46:54.285Z,0.00
2022-08-21T00:47:54.297Z,0.00
2022-08-21T00:48:57.234Z,0.00
2022-08-21T00:49:54.257Z,0.00
2022-08-21T00:50:54.257Z,0.00
2022-08-21T00:51:54.226Z,0.00
2022-08-21T00:52:54.260Z,0.00
2022-08-21T00:53:54.227Z,0.00
2022-08-21T00:54:54.199Z,0.00
2022-08-21T00:55:54.195Z,0.00
2022-08-21T00:56:54.195Z,0.00
2022-08-21T00:57:54.169Z,0.00
2022-08-21T00:58:54.900Z,0.00
2022-08-21T00:59:54.163Z,0.00
2022-08-21T01:00:54.219Z,0.00
2022-08-21T01:02:26.031Z,0.00
2022-08-21T01:02:54.139Z,0.00
2022-08-21T01:03:54.110Z,0.00
2022-08-21T01:04:54.122Z,0.00
2022-08-21T01:05:54.120Z,0.00
2022-08-21T01:06:54.170Z,0.00
2022-08-21T01:07:54.083Z,0.00
2022-08-21T01:08:54.065Z,0.00
2022-08-21T01:09:54.070Z,0.00
2022-08-21T01:10:54.708Z,0.00
2022-08-21T01:11:54.029Z,0.00
2022-08-21T01:12:54.138Z,0.00
2022-08-21T01:13:54.026Z,0.00
2022-08-21T01:14:54.005Z,0.00
2022-08-21T01:15:54.007Z,0.00
2022-08-21T01:16:54.182Z,0.00
2022-08-21T01:17:53.974Z,0.00
2022-08-21T01:18:53.965Z,0.00
2022-08-21T01:19:53.951Z,0.00
2022-08-21T01:20:53.963Z,0.00
2022-08-21T01:21:53.960Z,0.00
2022-08-21T01:22:53.920Z,0.00
2022-08-21T01:23:53.922Z,0.00
2022-08-21T01:24:54.892Z,0.00
2022-08-21T01:25:53.901Z,0.00
2022-08-21T01:26:53.883Z,0.00
2022-08-21T01:27:53.889Z,0.00
2022-08-21T01:28:53.898Z,0.00
2022-08-21T01:29:53.878Z,0.00
2022-08-21T01:30:53.847Z,0.00
2022-08-21T01:31:53.829Z,0.00
2022-08-21T01:32:53.821Z,0.00
2022-08-21T01:33:53.853Z,0.00
2022-08-21T01:34:53.789Z,0.00
2022-08-21T01:35:53.799Z,0.00
2022-08-21T01:36:53.805Z,0.00
2022-08-21T01:37:53.767Z,0.00
2022-08-21T01:38:53.754Z,0.00
2022-08-21T01:39:53.757Z,0.00
2022-08-21T01:40:53.728Z,0.00
2022-08-21T01:41:53.729Z,0.00
2022-08-21T01:42:53.733Z,0.00
2022-08-21T01:43:53.705Z,0.00
2022-08-21T01:44:54.757Z,0.00
2022-08-21T01:45:53.676Z,0.00
2022-08-21T01:46:53.676Z,0.00
2022-08-21T01:47:53.685Z,0.00
2022-08-21T01:48:53.645Z,0.00
2022-08-21T01:49:53.644Z,0.00
2022-08-21T01:50:56.741Z,0.00
2022-08-21T01:51:53.631Z,0.00
2022-08-21T01:52:53.634Z,0.00
2022-08-21T01:53:53.620Z,0.00
2022-08-21T01:54:55.508Z,0.00
2022-08-21T01:55:53.584Z,0.00
2022-08-21T01:56:53.560Z,0.00
2022-08-21T01:57:53.563Z,0.00
2022-08-21T01:58:53.571Z,0.00
2022-08-21T01:59:53.544Z,0.00
2022-08-21T02:00:53.556Z,0.00
2022-08-21T02:01:53.546Z,0.00
2022-08-21T02:02:53.514Z,0.00
2022-08-21T02:03:53.506Z,0.00
2022-08-21T02:04:53.501Z,0.00
2022-08-21T02:05:53.481Z,0.00
2022-08-21T02:06:53.587Z,0.00
2022-08-21T02:07:53.459Z,0.00
2022-08-21T02:08:53.440Z,0.00
2022-08-21T02:09:53.433Z,0.00
2022-08-21T02:10:53.429Z,0.00
2022-08-21T02:11:53.422Z,0.00
2022-08-21T02:12:53.428Z,0.00
2022-08-21T02:13:53.400Z,0.00
2022-08-21T02:14:53.413Z,0.00
2022-08-21T02:15:53.383Z,0.00
2022-08-21T02:16:53.368Z,0.00
2022-08-21T02:17:54.371Z,0.00
2022-08-21T02:18:53.345Z,0.00
2022-08-21T02:19:53.369Z,0.00
2022-08-21T02:20:55.871Z,0.00
2022-08-21T02:21:53.320Z,0.00
2022-08-21T02:22:53.303Z,0.00
2022-08-21T02:23:53.313Z,0.00
2022-08-21T02:24:55.169Z,0.00
2022-08-21T02:25:53.283Z,0.00
2022-08-21T02:26:53.279Z,0.00
2022-08-21T02:27:53.261Z,0.00
2022-08-21T02:28:53.263Z,0.00
2022-08-21T02:29:53.256Z,0.00
2022-08-21T02:30:53.227Z,0.00
2022-08-21T02:31:53.215Z,0.00
2022-08-21T02:32:53.217Z,0.00
2022-08-21T02:33:53.193Z,0.00
2022-08-21T02:34:53.221Z,0.00
2022-08-21T02:35:53.176Z,0.00
2022-08-21T02:36:59.646Z,0.00
2022-08-21T02:37:54.174Z,0.00
2022-08-21T02:38:53.154Z,0.00
2022-08-21T02:39:53.186Z,0.00
2022-08-21T02:40:53.127Z,0.00
2022-08-21T02:41:53.134Z,0.00
2022-08-21T02:42:53.113Z,0.00
2022-08-21T02:43:53.093Z,0.00
2022-08-21T02:44:53.103Z,0.00
2022-08-21T02:45:53.083Z,0.00
2022-08-21T02:46:53.123Z,0.00
2022-08-21T02:47:53.068Z,0.00
2022-08-21T02:48:53.048Z,0.00
2022-08-21T02:49:53.034Z,0.00
2022-08-21T02:50:53.022Z,0.00
2022-08-21T02:51:53.012Z,0.00
2022-08-21T02:52:54.930Z,0.00
2022-08-21T02:53:53.002Z,0.00
2022-08-21T02:54:52.982Z,0.00
2022-08-21T02:55:52.974Z,0.00
2022-08-21T02:56:53.118Z,0.00
2022-08-21T02:57:52.979Z,0.00
2022-08-21T02:58:52.948Z,0.00
2022-08-21T02:59:52.932Z,0.00
2022-08-21T03:00:52.924Z,0.00
2022-08-21T03:01:52.938Z,0.00
2022-08-21T03:02:52.949Z,0.00
2022-08-21T03:03:52.903Z,0.00
2022-08-21T03:04:52.883Z,0.00
2022-08-21T03:05:52.880Z,0.00
2022-08-21T03:06:53.063Z,0.00
2022-08-21T03:07:52.865Z,0.00
2022-08-21T03:08:52.871Z,0.00
2022-08-21T03:09:55.281Z,0.00
2022-08-21T03:10:52.828Z,0.00
2022-08-21T03:11:52.813Z,0.00
2022-08-21T03:12:52.835Z,0.00
2022-08-21T03:13:52.801Z,0.00
2022-08-21T03:14:52.783Z,0.00
2022-08-21T03:15:52.781Z,0.00
2022-08-21T03:16:52.763Z,0.00
2022-08-21T03:17:52.759Z,0.00
2022-08-21T03:18:52.746Z,0.00
2022-08-21T03:19:52.732Z,0.00
2022-08-21T03:20:52.715Z,0.00
2022-08-21T03:21:52.729Z,0.00
2022-08-21T03:22:53.166Z,0.00
2022-08-21T03:23:52.692Z,0.00
2022-08-21T03:24:52.683Z,0.00
2022-08-21T03:25:52.698Z,0.00
2022-08-21T03:26:52.658Z,0.00
2022-08-21T03:27:55.923Z,0.00
2022-08-21T03:28:54.676Z,0.00
2022-08-21T03:29:52.664Z,0.00
2022-08-21T03:30:52.616Z,0.00
2022-08-21T03:31:52.609Z,0.00
2022-08-21T03:32:52.602Z,0.00
2022-08-21T03:33:52.677Z,0.00
2022-08-21T03:34:52.582Z,0.00
2022-08-21T03:35:52.576Z,0.00
2022-08-21T03:36:52.559Z,0.00
2022-08-21T03:37:52.548Z,0.00
2022-08-21T03:38:52.551Z,0.00
2022-08-21T03:39:52.577Z,0.00
2022-08-21T03:40:52.528Z,0.00
2022-08-21T03:41:52.528Z,0.00
2022-08-21T03:42:52.506Z,0.00
2022-08-21T03:43:52.492Z,0.00
2022-08-21T03:44:52.502Z,0.00
2022-08-21T03:45:52.732Z,0.00
2022-08-21T03:46:52.471Z,0.00
2022-08-21T03:47:52.459Z,0.00
2022-08-21T03:48:52.451Z,0.00
2022-08-21T03:49:52.453Z,0.00
2022-08-21T03:50:52.488Z,0.00
2022-08-21T03:51:59.406Z,0.00
2022-08-21T03:52:53.409Z,0.00
2022-08-21T03:53:52.404Z,0.00
2022-08-21T03:54:52.386Z,0.00
2022-08-21T03:55:52.407Z,0.00
2022-08-21T03:56:52.369Z,0.00
2022-08-21T03:57:52.363Z,0.00
2022-08-21T03:58:52.342Z,0.00
2022-08-21T03:59:52.342Z,0.00
2022-08-21T04:00:52.336Z,0.00
2022-08-21T04:01:52.353Z,0.00
2022-08-21T04:02:52.334Z,0.00
2022-08-21T04:03:52.310Z,0.00
2022-08-21T04:04:52.277Z,0.00
2022-08-21T04:05:52.273Z,0.00
2022-08-21T04:06:52.266Z,0.00
2022-08-21T04:07:52.253Z,0.00
2022-08-21T04:08:52.309Z,0.00
2022-08-21T04:09:52.231Z,0.00
2022-08-21T04:10:52.227Z,0.00
2022-08-21T04:11:52.209Z,0.00
2022-08-21T04:12:52.216Z,0.00
2022-08-21T04:13:52.202Z,0.00
2022-08-21T04:14:52.201Z,0.00
2022-08-21T04:15:52.272Z,0.00
2022-08-21T04:16:52.167Z,0.00
2022-08-21T04:17:52.159Z,0.00
2022-08-21T04:18:52.150Z,5.62
2022-08-21T04:19:54.007Z,5.62
2022-08-21T04:20:53.140Z,5.62
2022-08-21T04:21:52.607Z,5.62
2022-08-21T04:22:52.135Z,5.62
2022-08-21T04:23:53.097Z,5.62
2022-08-21T04:24:52.144Z,5.62
2022-08-21T04:25:52.076Z,5.62
2022-08-21T04:26:52.064Z,5.62
2022-08-21T04:27:52.103Z,5.62
2022-08-21T04:28:52.046Z,5.62
2022-08-21T04:29:52.036Z,11.25
2022-08-21T04:30:52.048Z,11.25
2022-08-21T04:31:52.011Z,11.25
2022-08-21T04:32:52.040Z,11.25
2022-08-21T04:33:51.991Z,11.25
2022-08-21T04:34:51.981Z,16.88
2022-08-21T04:35:51.987Z,16.88
2022-08-21T04:36:51.965Z,16.88
2022-08-21T04:37:51.973Z,16.88
2022-08-21T04:38:51.939Z,16.88
2022-08-21T04:39:53.650Z,16.88
2022-08-21T04:40:52.922Z,16.88
2022-08-21T04:41:51.917Z,16.88
2022-08-21T04:42:51.957Z,22.50
2022-08-21T04:43:51.912Z,16.88
2022-08-21T04:44:51.896Z,22.50
2022-08-21T04:45:51.869Z,22.50
2022-08-21T04:46:51.866Z,22.50
2022-08-21T04:47:52.134Z,28.12
2022-08-21T04:48:51.868Z,28.12
2022-08-21T04:49:51.837Z,28.12
2022-08-21T04:50:51.826Z,28.12
2022-08-21T04:51:51.812Z,28.12
2022-08-21T04:52:51.818Z,33.75
2022-08-21T04:53:53.059Z,33.75
2022-08-21T04:54:54.820Z,33.75
2022-08-21T04:55:52.785Z,39.38
2022-08-21T04:56:51.765Z,39.38
2022-08-21T04:57:51.757Z,45.00
2022-08-21T04:58:51.747Z,50.62
2022-08-21T04:59:51.774Z,50.62
2022-08-21T05:00:51.728Z,50.62
2022-08-21T05:01:51.821Z,50.62
2022-08-21T05:02:51.762Z,56.25
2022-08-21T05:03:51.706Z,56.25
2022-08-21T05:04:51.690Z,61.88
2022-08-21T05:05:51.700Z,61.88
2022-08-21T05:06:51.671Z,61.88
2022-08-21T05:07:51.674Z,61.88
2022-08-21T05:08:51.667Z,67.50
2022-08-21T05:09:51.667Z,67.50
2022-08-21T05:10:51.633Z,67.50
2022-08-21T05:11:51.636Z,73.12
2022-08-21T05:12:51.631Z,73.12
2022-08-21T05:13:54.994Z,73.12
2022-08-21T05:14:52.596Z,78.75
2022-08-21T05:15:51.588Z,78.75
2022-08-21T05:16:51.592Z,84.38
2022-08-21T05:17:52.406Z,84.38
2022-08-21T05:18:51.550Z,90.00
2022-08-21T05:19:51.557Z,90.00
2022-08-21T05:20:51.528Z,95.62
2022-08-21T05:21:51.526Z,95.62
2022-08-21T05:22:51.551Z,101.25
2022-08-21T05:23:51.511Z,106.88
2022-08-21T05:24:51.516Z,112.50
2022-08-21T05:25:51.488Z,112.50
2022-08-21T05:26:51.476Z,112.50
2022-08-21T05:27:51.983Z,112.50
2022-08-21T05:28:51.458Z,118.12
2022-08-21T05:29:51.451Z,118.12
2022-08-21T05:30:51.446Z,112.50
2022-08-21T05:31:51.419Z,112.50
2022-08-21T05:32:51.463Z,112.50
2022-08-21T05:33:52.038Z,112.50
2022-08-21T05:34:51.390Z,118.12
2022-08-21T05:35:51.387Z,118.12
2022-08-21T05:36:51.404Z,123.75
2022-08-21T05:37:51.401Z,135.00
2022-08-21T05:38:51.351Z,135.00
2022-08-21T05:40:05.015Z,135.00
2022-08-21T05:40:52.443Z,135.00
2022-08-21T05:41:51.344Z,140.62
2022-08-21T05:42:56.260Z,140.62
2022-08-21T05:43:52.310Z,140.62
2022-08-21T05:44:51.288Z,146.25
2022-08-21T05:45:51.279Z,146.25
2022-08-21T05:46:51.296Z,157.50
2022-08-21T05:47:51.263Z,163.12
2022-08-21T05:48:51.253Z,174.38
2022-08-21T05:49:51.249Z,191.25
2022-08-21T05:50:51.233Z,196.88
2022-08-21T05:51:51.252Z,208.12
2022-08-21T05:52:51.297Z,202.50
2022-08-21T05:53:52.216Z,196.88
2022-08-21T05:54:51.197Z,196.88
2022-08-21T05:55:51.184Z,196.88
2022-08-21T05:56:51.181Z,202.50
2022-08-21T05:57:51.164Z,208.12
2022-08-21T05:58:51.166Z,219.38
2022-08-21T05:59:51.172Z,230.62
2022-08-21T06:00:51.144Z,225.00
2022-08-21T06:01:51.165Z,230.62
2022-08-21T06:02:51.155Z,219.38
2022-08-21T06:03:51.120Z,213.75
2022-08-21T06:04:51.102Z,213.75
2022-08-21T06:05:51.098Z,208.12
2022-08-21T06:06:51.075Z,208.12
2022-08-21T06:07:51.063Z,219.38
2022-08-21T06:08:51.042Z,219.38
2022-08-21T06:09:51.074Z,225.00
2022-08-21T06:10:51.021Z,225.00
2022-08-21T06:11:51.016Z,230.62
2022-08-21T06:12:51.010Z,241.88
2022-08-21T06:13:50.999Z,241.88
2022-08-21T06:14:51.010Z,230.62
2022-08-21T06:15:50.977Z,230.62
2022-08-21T06:16:51.006Z,230.62
2022-08-21T06:17:50.971Z,247.50
2022-08-21T06:18:50.950Z,253.12
2022-08-21T06:19:50.941Z,264.38
2022-08-21T06:20:50.926Z,264.38
2022-08-21T06:21:50.951Z,258.75
2022-08-21T06:22:50.919Z,253.12
2022-08-21T06:23:50.928Z,258.75
2022-08-21T06:24:50.893Z,275.62
2022-08-21T06:25:50.878Z,281.25
2022-08-21T06:26:50.873Z,275.62
2022-08-21T06:27:50.858Z,275.62
2022-08-21T06:28:50.872Z,286.88
2022-08-21T06:29:50.837Z,315.00
2022-08-21T06:30:50.836Z,348.75
2022-08-21T06:31:50.827Z,348.75
2022-08-21T06:32:50.811Z,343.12
2022-08-21T06:33:50.824Z,315.00
2022-08-21T06:34:50.793Z,309.38
2022-08-21T06:35:50.789Z,303.75
2022-08-21T06:36:50.772Z,309.38
2022-08-21T06:37:50.795Z,326.25
2022-08-21T06:38:51.641Z,315.00
2022-08-21T06:39:50.813Z,315.00
2022-08-21T06:40:50.759Z,315.00
2022-08-21T06:41:50.714Z,315.00
2022-08-21T06:42:50.705Z,309.38
2022-08-21T06:43:50.708Z,309.38
2022-08-21T06:44:50.690Z,298.12
2022-08-21T06:45:50.709Z,298.12
2022-08-21T06:46:50.665Z,309.38
2022-08-21T06:47:50.651Z,315.00
2022-08-21T06:48:50.651Z,315.00
2022-08-21T06:49:50.626Z,315.00
2022-08-21T06:50:50.645Z,315.00
2022-08-21T06:51:50.633Z,309.38
2022-08-21T06:52:50.609Z,315.00
2022-08-21T06:53:50.611Z,331.88
2022-08-21T06:54:50.598Z,348.75
2022-08-21T06:55:50.589Z,360.00
2022-08-21T06:56:50.565Z,376.88
2022-08-21T06:57:52.661Z,410.62
2022-08-21T06:58:50.552Z,433.12
2022-08-21T06:59:50.543Z,438.75
2022-08-21T07:00:50.544Z,450.00
2022-08-21T07:02:04.767Z,466.88
2022-08-21T07:02:50.580Z,483.75
2022-08-21T07:03:50.554Z,483.75
2022-08-21T07:04:50.507Z,466.88
2022-08-21T07:05:50.480Z,455.62
2022-08-21T07:06:50.477Z,472.50
2022-08-21T07:07:50.491Z,495.00
2022-08-21T07:08:50.490Z,523.12
2022-08-21T07:09:50.461Z,506.25
2022-08-21T07:10:50.446Z,500.62
2022-08-21T07:11:50.417Z,489.38
2022-08-21T07:12:50.777Z,466.88
2022-08-21T07:13:50.406Z,466.88
2022-08-21T07:14:50.389Z,489.38
2022-08-21T07:15:50.382Z,495.00
2022-08-21T07:16:50.380Z,495.00
2022-08-21T07:17:50.350Z,506.25
2022-08-21T07:18:50.353Z,540.00
2022-08-21T07:19:50.365Z,568.12
2022-08-21T07:20:50.331Z,573.75
2022-08-21T07:21:50.316Z,545.62
2022-08-21T07:22:50.308Z,528.75
2022-08-21T07:23:50.296Z,568.12
2022-08-21T07:24:50.305Z,590.62
2022-08-21T07:25:50.278Z,601.88
2022-08-21T07:26:50.269Z,624.38
2022-08-21T07:27:50.260Z,669.38
2022-08-21T07:28:50.264Z,725.62
2022-08-21T07:29:50.243Z,826.88
2022-08-21T07:30:50.260Z,793.12
2022-08-21T07:31:50.224Z,776.25
2022-08-21T07:32:50.310Z,798.75
2022-08-21T07:33:50.189Z,866.25
2022-08-21T07:34:50.204Z,961.88
2022-08-21T07:35:50.174Z,978.75
2022-08-21T07:36:50.178Z,1040.62
2022-08-21T07:37:50.176Z,1181.25
2022-08-21T07:38:52.683Z,1411.88
2022-08-21T07:39:50.226Z,1693.12
2022-08-21T07:40:50.125Z,1631.25
2022-08-21T07:41:50.118Z,2233.12
2022-08-21T07:42:50.132Z,2469.38
2022-08-21T07:43:52.804Z,2120.62
2022-08-21T07:44:50.108Z,2255.62
2022-08-21T07:45:50.080Z,2733.75
2022-08-21T07:46:50.070Z,2182.50
2022-08-21T07:47:53.100Z,3268.12
2022-08-21T07:48:50.051Z,3262.50
2022-08-21T07:49:50.744Z,3223.12
2022-08-21T07:50:50.036Z,3166.88
2022-08-21T07:51:50.017Z,3223.12
2022-08-21T07:52:50.075Z,3262.50
2022-08-21T07:53:50.009Z,3256.88
2022-08-21T07:54:49.997Z,3256.88
2022-08-21T07:55:49.977Z,3240.00
2022-08-21T07:56:49.968Z,3217.50
2022-08-21T07:57:49.976Z,3206.25
2022-08-21T07:58:49.958Z,3217.50
2022-08-21T07:59:49.960Z,3172.50
2022-08-21T08:00:49.923Z,3088.12
2022-08-21T08:01:49.931Z,3015.00
2022-08-21T08:02:50.001Z,3003.75
2022-08-21T08:03:49.902Z,3026.25
2022-08-21T08:04:50.526Z,2958.75
2022-08-21T08:05:50.891Z,2975.62
2022-08-21T08:06:49.877Z,2936.25
2022-08-21T08:07:49.855Z,2806.88
2022-08-21T08:08:49.840Z,2863.12
2022-08-21T08:09:49.840Z,2851.88
2022-08-21T08:10:49.857Z,2806.88
2022-08-21T08:11:49.837Z,2795.62
2022-08-21T08:12:49.827Z,2705.62
2022-08-21T08:13:49.842Z,2677.50
2022-08-21T08:14:49.793Z,2705.62
2022-08-21T08:15:49.806Z,2688.75
2022-08-21T08:16:49.796Z,2638.12
2022-08-21T08:17:49.799Z,2593.12
2022-08-21T08:18:49.769Z,2480.62
2022-08-21T08:19:49.773Z,2385.00
2022-08-21T08:20:49.765Z,2283.75
2022-08-21T08:21:49.756Z,1878.75
2022-08-21T08:22:50.373Z,1580.62
2022-08-21T08:23:49.766Z,1530.00
2022-08-21T08:24:49.769Z,1535.62
2022-08-21T08:25:49.703Z,1552.50
2022-08-21T08:26:53.689Z,1603.12
2022-08-21T08:27:49.811Z,1636.88
2022-08-21T08:28:50.711Z,1620.00
2022-08-21T08:29:49.742Z,1603.12
2022-08-21T08:30:51.432Z,1580.62
2022-08-21T08:31:49.674Z,1575.00
2022-08-21T08:32:49.657Z,1558.12
2022-08-21T08:33:49.648Z,1580.62
2022-08-21T08:34:49.616Z,1636.88
2022-08-21T08:35:49.600Z,1760.62
2022-08-21T08:36:49.599Z,1940.62
2022-08-21T08:37:52.423Z,2233.12
2022-08-21T08:38:49.607Z,2671.88
2022-08-21T08:39:49.615Z,2896.88
2022-08-21T08:40:49.565Z,2615.62
2022-08-21T08:41:49.550Z,2272.50
2022-08-21T08:42:50.543Z,2064.38
2022-08-21T08:43:49.527Z,2008.12
2022-08-21T08:44:49.536Z,1912.50
2022-08-21T08:45:49.523Z,1788.75
2022-08-21T08:46:49.498Z,1783.12
2022-08-21T08:47:49.495Z,1783.12
2022-08-21T08:48:53.121Z,1755.00
2022-08-21T08:49:50.490Z,1726.88
2022-08-21T08:50:49.485Z,1687.50
2022-08-21T08:51:53.012Z,1670.62
2022-08-21T08:52:49.454Z,1738.12
2022-08-21T08:53:49.440Z,1721.25
2022-08-21T08:54:49.435Z,1636.88
2022-08-21T08:55:49.477Z,1591.88
2022-08-21T08:56:49.444Z,1563.75
2022-08-21T08:57:50.129Z,1591.88
2022-08-21T08:58:49.382Z,1648.12
2022-08-21T08:59:49.402Z,1642.50
2022-08-21T09:00:49.400Z,1636.88
2022-08-21T09:01:49.435Z,1620.00
2022-08-21T09:02:49.362Z,1620.00
2022-08-21T09:03:49.347Z,1603.12
2022-08-21T09:04:49.338Z,1597.50
2022-08-21T09:05:49.323Z,1653.75
2022-08-21T09:06:49.329Z,810.00
2022-08-21T09:07:49.332Z,1558.12
2022-08-21T09:08:49.318Z,1597.50
2022-08-21T09:09:49.322Z,1518.75
2022-08-21T09:10:49.277Z,1631.25
2022-08-21T09:11:49.275Z,1676.25
2022-08-21T09:12:49.259Z,1704.38
2022-08-21T09:13:49.271Z,1715.62
2022-08-21T09:14:49.235Z,1715.62
2022-08-21T09:15:49.255Z,1732.50
2022-08-21T09:16:49.259Z,1248.75
2022-08-21T09:17:49.283Z,1102.50
2022-08-21T09:18:49.233Z,1068.75
2022-08-21T09:19:49.214Z,1434.38
2022-08-21T09:20:49.177Z,1130.62
2022-08-21T09:21:50.267Z,1665.00
2022-08-21T09:22:49.190Z,2126.25
2022-08-21T09:23:49.169Z,1996.88
2022-08-21T09:24:51.975Z,1901.25
2022-08-21T09:25:50.329Z,2317.50
2022-08-21T09:26:49.115Z,1068.75
2022-08-21T09:27:49.162Z,1012.50
2022-08-21T09:28:49.117Z,2475.00
2022-08-21T09:29:49.129Z,2745.00
2022-08-21T09:30:49.085Z,2435.62
2022-08-21T09:31:49.074Z,2126.25
2022-08-21T09:32:49.094Z,1822.50
2022-08-21T09:33:49.072Z,1642.50
2022-08-21T09:34:49.075Z,1546.88
2022-08-21T09:35:49.051Z,1417.50
2022-08-21T09:36:49.067Z,911.25
2022-08-21T09:37:49.052Z,826.88
2022-08-21T09:38:49.037Z,826.88
2022-08-21T09:39:49.700Z,708.75
2022-08-21T09:40:50.064Z,663.75
2022-08-21T09:41:49.003Z,635.62
2022-08-21T09:42:48.986Z,618.75
2022-08-21T09:43:48.982Z,607.50
2022-08-21T09:44:48.979Z,590.62
2022-08-21T09:45:48.983Z,585.00
2022-08-21T09:46:49.050Z,573.75
2022-08-21T09:47:48.928Z,579.38
2022-08-21T09:48:48.922Z,573.75
2022-08-21T09:49:48.934Z,551.25
2022-08-21T09:50:48.905Z,551.25
2022-08-21T09:51:48.911Z,562.50
2022-08-21T09:52:48.903Z,579.38
2022-08-21T09:53:48.904Z,579.38
2022-08-21T09:54:48.864Z,568.12
2022-08-21T09:55:48.867Z,551.25
2022-08-21T09:56:48.900Z,540.00
2022-08-21T09:57:50.435Z,540.00
2022-08-21T09:58:48.829Z,551.25
2022-08-21T09:59:48.819Z,579.38
2022-08-21T10:00:48.908Z,607.50
2022-08-21T10:01:48.826Z,877.50
2022-08-21T10:02:48.786Z,703.12
2022-08-21T10:03:48.773Z,1051.88
2022-08-21T10:04:48.772Z,1068.75
2022-08-21T10:05:48.758Z,1102.50
2022-08-21T10:06:48.759Z,1113.75
2022-08-21T10:07:48.764Z,1113.75
2022-08-21T10:08:48.732Z,1113.75
2022-08-21T10:09:48.721Z,1096.88
2022-08-21T10:10:48.727Z,1080.00
2022-08-21T10:11:49.702Z,1068.75
2022-08-21T10:12:48.720Z,1040.62
2022-08-21T10:13:48.692Z,1018.12
2022-08-21T10:14:48.685Z,995.62
2022-08-21T10:15:48.677Z,984.38
2022-08-21T10:16:48.653Z,984.38
2022-08-21T10:17:48.663Z,990.00
2022-08-21T10:18:48.650Z,1001.25
2022-08-21T10:19:48.659Z,1012.50
2022-08-21T10:20:48.621Z,1023.75
2022-08-21T10:21:49.158Z,1023.75
2022-08-21T10:22:48.617Z,1023.75
2022-08-21T10:23:48.590Z,1012.50
2022-08-21T10:24:48.595Z,995.62
2022-08-21T10:25:56.915Z,1001.25
2022-08-21T10:26:49.556Z,1018.12
2022-08-21T10:27:48.546Z,1012.50
2022-08-21T10:28:48.542Z,1006.88
2022-08-21T10:29:48.549Z,1023.75
2022-08-21T10:30:48.533Z,1023.75
2022-08-21T10:31:48.522Z,995.62
2022-08-21T10:32:48.502Z,939.38
2022-08-21T10:33:48.497Z,787.50
2022-08-21T10:34:48.521Z,697.50
2022-08-21T10:35:48.474Z,686.25
2022-08-21T10:36:48.469Z,759.38
2022-08-21T10:37:48.483Z,691.88
2022-08-21T10:39:02.706Z,759.38
2022-08-21T10:39:50.464Z,630.00
2022-08-21T10:40:48.430Z,630.00
2022-08-21T10:41:48.445Z,562.50
2022-08-21T10:42:48.427Z,590.62
2022-08-21T10:43:48.405Z,759.38
2022-08-21T10:44:48.420Z,787.50
2022-08-21T10:45:48.376Z,815.62
2022-08-21T10:46:48.363Z,832.50
2022-08-21T10:47:49.366Z,832.50
2022-08-21T10:48:48.388Z,826.88
2022-08-21T10:49:48.366Z,810.00
2022-08-21T10:50:48.337Z,798.75
2022-08-21T10:51:48.333Z,776.25
2022-08-21T10:52:48.313Z,748.12
2022-08-21T10:53:48.303Z,736.88
2022-08-21T10:54:48.324Z,731.25
2022-08-21T10:55:48.288Z,731.25
2022-08-21T10:56:48.298Z,736.88
2022-08-21T10:57:48.266Z,731.25
2022-08-21T10:58:48.252Z,725.62
2022-08-21T10:59:48.253Z,708.75
2022-08-21T11:00:48.289Z,703.12
2022-08-21T11:01:48.244Z,697.50
2022-08-21T11:02:48.219Z,686.25
2022-08-21T11:03:48.243Z,686.25
2022-08-21T11:04:49.432Z,691.88
2022-08-21T11:05:50.788Z,703.12
2022-08-21T11:06:49.190Z,534.38
2022-08-21T11:07:48.170Z,607.50
2022-08-21T11:08:48.177Z,517.50
2022-08-21T11:09:48.144Z,641.25
2022-08-21T11:10:55.179Z,495.00
2022-08-21T11:11:59.048Z,489.38
2022-08-21T11:12:49.238Z,483.75
2022-08-21T11:13:48.126Z,483.75
2022-08-21T11:14:49.775Z,455.62
2022-08-21T11:15:48.112Z,444.38
2022-08-21T11:16:48.073Z,444.38
2022-08-21T11:17:48.072Z,438.75
2022-08-21T11:18:48.070Z,444.38
2022-08-21T11:19:48.051Z,455.62
2022-08-21T11:20:48.071Z,461.25
2022-08-21T11:21:48.038Z,466.88
2022-08-21T11:22:51.351Z,489.38
2022-08-21T11:23:50.011Z,585.00
2022-08-21T11:24:48.024Z,669.38
2022-08-21T11:25:47.999Z,652.50
2022-08-21T11:26:51.345Z,641.25
2022-08-21T11:27:48.084Z,635.62
2022-08-21T11:28:47.981Z,630.00
2022-08-21T11:29:47.972Z,618.75
2022-08-21T11:30:47.967Z,506.25
2022-08-21T11:31:47.956Z,607.50
2022-08-21T11:32:47.930Z,427.50
2022-08-21T11:33:47.937Z,416.25
2022-08-21T11:34:47.926Z,410.62
2022-08-21T11:35:47.902Z,416.25
2022-08-21T11:36:47.949Z,427.50
2022-08-21T11:37:48.967Z,444.38
2022-08-21T11:38:47.878Z,455.62
2022-08-21T11:39:47.933Z,455.62
2022-08-21T11:40:47.852Z,450.00
2022-08-21T11:41:47.856Z,444.38
2022-08-21T11:42:47.843Z,444.38
2022-08-21T11:43:47.814Z,444.38
2022-08-21T11:44:47.807Z,450.00
2022-08-21T11:45:47.814Z,450.00
2022-08-21T11:46:47.851Z,444.38
2022-08-21T11:47:52.054Z,444.38
2022-08-21T11:48:48.791Z,528.75
2022-08-21T11:49:47.753Z,438.75
2022-08-21T11:50:47.772Z,427.50
2022-08-21T11:51:47.737Z,433.12
2022-08-21T11:52:47.734Z,585.00
2022-08-21T11:53:52.090Z,585.00
2022-08-21T11:54:49.707Z,579.38
2022-08-21T11:55:47.743Z,585.00
2022-08-21T11:56:47.704Z,590.62
2022-08-21T11:57:47.679Z,596.25
2022-08-21T11:58:47.670Z,601.88
2022-08-21T11:59:47.666Z,613.12
2022-08-21T12:00:47.679Z,618.75
2022-08-21T12:01:47.671Z,630.00
2022-08-21T12:02:47.624Z,624.38
2022-08-21T12:03:47.624Z,618.75
2022-08-21T12:04:48.641Z,613.12
2022-08-21T12:05:47.614Z,601.88
2022-08-21T12:06:47.607Z,585.00
2022-08-21T12:07:47.582Z,579.38
2022-08-21T12:08:47.571Z,573.75
2022-08-21T12:09:47.584Z,568.12
2022-08-21T12:10:47.556Z,562.50
2022-08-21T12:11:47.538Z,568.12
2022-08-21T12:12:47.556Z,568.12
2022-08-21T12:13:47.523Z,573.75
2022-08-21T12:14:47.508Z,579.38
2022-08-21T12:15:47.502Z,579.38
2022-08-21T12:16:47.499Z,579.38
2022-08-21T12:17:47.516Z,585.00
2022-08-21T12:18:47.472Z,590.62
2022-08-21T12:19:47.468Z,590.62
2022-08-21T12:20:50.378Z,596.25
2022-08-21T12:21:47.453Z,596.25
2022-08-21T12:22:47.472Z,601.88
2022-08-21T12:23:47.433Z,607.50
2022-08-21T12:24:47.414Z,613.12
2022-08-21T12:25:48.411Z,618.75
2022-08-21T12:26:47.418Z,630.00
2022-08-21T12:27:47.407Z,624.38
2022-08-21T12:28:47.404Z,618.75
2022-08-21T12:29:47.372Z,618.75
2022-08-21T12:30:47.363Z,607.50
2022-08-21T12:31:47.367Z,601.88
2022-08-21T12:32:47.637Z,579.38
2022-08-21T12:33:47.354Z,568.12
2022-08-21T12:34:47.339Z,556.88
2022-08-21T12:35:47.314Z,556.88
2022-08-21T12:36:47.304Z,388.12
2022-08-21T12:37:47.332Z,517.50
2022-08-21T12:38:47.314Z,545.62
2022-08-21T12:39:47.342Z,551.25
2022-08-21T12:40:47.292Z,562.50
2022-08-21T12:41:47.260Z,568.12
2022-08-21T12:42:58.041Z,478.12